Darstellungsparameter: Aktuell verwendete Einstellungen:
Skalierung der Graphiken ... ?
xyx+y,   Skalierungsfaktor:      Skalierung: Modus: x, Faktor: 1
Darstellungszeitraum ... ?
Vom - - bis: - -   Zeitraum: 22.06.2010 - 22.06.2010
Min/Max/Avg-Anzeige ... ?
Zeige MMA aktuell
Zeige MMA Monat
Zeige MMA alles
Zeige --A aktuell
Zeige --A Monat
Zeige --A alles
Keine MMA-Anzeige
MMA:
Minimum Maximum Average (ber die Originaldaten)
MMA-Basis: 14.04.2020 - 16.05.2020
Quicknavigation für Darstellung... ?
Tage:      1T, 2T, 3T, 5T -1T -2T -3T -5T +1T +2T +3T +5T
Wochen: 1W, 2W, 3W -1W -2W -3W +1W +2W +3W
Monate: 1M, 3M, 6M -1M -3M -6M +1M +3M +6M
Jahre:    1J, 3J, 5J, 10J -1J -3J -5J -10J +1J +3J +5J +10J
Nutze für die Darstellung ... ?
Originaldaten oder Mittelwerte auf ...
Stundenbasis Tagesbasis Wochenbasis
Monatsbasis Jahresbasis      Datenbasis: Original-Daten
Darstellen als:
Statistik (Auto) Statistik J:M      Darstellung:
Zur Graphik,    zurück zur Übersicht aller Sensoren.
 
Tabellarische Datenbersicht: ?
 
Sensor: Nr:Datum:Temp:Abs-Feuchte:Windchill:Wind:
Aussen-T/F 1 22-06-2010 00:06:04 12.8 C 6.5 g/m*3 12.8 C 0 km/h
2 22-06-2010 00:18:04 12.5 C 6.49 g/m*3 12.5 C 0 km/h
3 22-06-2010 00:30:04 12.2 C 6.58 g/m*3 12.2 C 0 km/h
4 22-06-2010 00:42:04 12.1 C 6.65 g/m*3 12.1 C 0 km/h
5 22-06-2010 00:54:04 12.1 C 6.86 g/m*3 12.1 C 0 km/h
6 22-06-2010 01:06:04 12.2 C 7.01 g/m*3 12.2 C 0 km/h
7 22-06-2010 01:18:04 12.2 C 7.01 g/m*3 12.2 C 0 km/h
8 22-06-2010 01:30:05 12.4 C 6.99 g/m*3 12.4 C 0 km/h
9 22-06-2010 01:42:05 12.2 C 7.01 g/m*3 12.2 C 0 km/h
10 22-06-2010 01:54:05 12.2 C 7.01 g/m*3 12.2 C 0 km/h
11 22-06-2010 02:06:05 12.1 C 6.97 g/m*3 12.1 C 0 km/h
12 22-06-2010 02:18:05 12.2 C 7.01 g/m*3 12.2 C 0 km/h
13 22-06-2010 02:30:05 12 C 7.03 g/m*3 12 C 0 km/h
14 22-06-2010 02:42:05 11.9 C 7.1 g/m*3 11.9 C 0 km/h
15 22-06-2010 02:54:05 11.9 C 7.2 g/m*3 11.9 C 0 km/h
16 22-06-2010 03:06:05 11.9 C 7.31 g/m*3 11.9 C 0 km/h
17 22-06-2010 03:18:05 11.8 C 7.26 g/m*3 11.8 C 0 km/h
18 22-06-2010 03:30:05 11.7 C 7.22 g/m*3 11.7 C 0 km/h
19 22-06-2010 03:42:05 11.8 C 7.26 g/m*3 11.8 C 0 km/h
20 22-06-2010 03:54:05 11.9 C 7.41 g/m*3 11.9 C 0 km/h
21 22-06-2010 04:06:05 11.5 C 7.33 g/m*3 11.5 C 0 km/h
22 22-06-2010 04:18:05 11.4 C 7.29 g/m*3 11.4 C 0 km/h
23 22-06-2010 04:30:05 11.5 C 7.44 g/m*3 11.5 C 0 km/h
24 22-06-2010 04:42:05 11.5 C 7.44 g/m*3 11.5 C 0 km/h
25 22-06-2010 04:54:05 11.5 C 7.44 g/m*3 11.5 C 0 km/h
Sensor: Nr:Datum:Temp:Abs-Feuchte:Windchill:Wind:
Aussen-T/F 26 22-06-2010 05:06:05 11.5 C 7.54 g/m*3 11.5 C 0 km/h
27 22-06-2010 05:18:05 11.4 C 7.49 g/m*3 11.4 C 0 km/h
28 22-06-2010 05:30:05 11.4 C 7.49 g/m*3 11.4 C 0 km/h
29 22-06-2010 05:42:05 11.5 C 7.54 g/m*3 11.5 C 0 km/h
30 22-06-2010 05:54:05 11.4 C 7.39 g/m*3 11.4 C 0 km/h
31 22-06-2010 06:06:06 11.5 C 7.54 g/m*3 11.5 C 0 km/h
32 22-06-2010 06:18:06 11.5 C 7.54 g/m*3 11.5 C 0 km/h
33 22-06-2010 06:30:06 11.6 C 7.69 g/m*3 11.6 C 0 km/h
34 22-06-2010 06:42:03 11.6 C 7.69 g/m*3 11.6 C 0 km/h
35 22-06-2010 06:54:02 11.7 C 7.64 g/m*3 11.7 C 0 km/h
36 22-06-2010 07:06:02 11.9 C 7.73 g/m*3 11.9 C 0 km/h
37 22-06-2010 07:18:02 12 C 7.67 g/m*3 12 C 0 km/h
38 22-06-2010 07:30:02 12.1 C 7.61 g/m*3 12.1 C 0 km/h
39 22-06-2010 07:42:02 12.4 C 7.65 g/m*3 12.4 C 0 km/h
40 22-06-2010 07:54:01 12.8 C 7.73 g/m*3 12.8 C 0 km/h
41 22-06-2010 08:06:02 13.1 C 7.65 g/m*3 13.1 C 0 km/h
42 22-06-2010 08:18:02 13 C 7.14 g/m*3 13 C 0 km/h
43 22-06-2010 08:30:02 12.9 C 7.44 g/m*3 12.9 C 0 km/h
44 22-06-2010 08:42:02 12.9 C 7.66 g/m*3 12.9 C 0 km/h
45 22-06-2010 08:54:02 13.1 C 7.53 g/m*3 13.1 C 0 km/h
46 22-06-2010 09:06:01 13.5 C 7.49 g/m*3 13.5 C 0 km/h
47 22-06-2010 09:18:02 14.2 C 7.45 g/m*3 14.2 C 0 km/h
48 22-06-2010 09:30:03 15.1 C 7.61 g/m*3 15.1 C 0 km/h
49 22-06-2010 09:42:01 15.8 C 7.4 g/m*3 15.8 C 0 km/h
50 22-06-2010 09:54:02 16.4 C 6.7 g/m*3 16.4 C 0 km/h
Sensor: Nr:Datum:Temp:Abs-Feuchte:Windchill:Wind:
Aussen-T/F 51 22-06-2010 10:06:01 17.3 C 6.19 g/m*3 17.3 C 0 km/h
52 22-06-2010 10:18:01 17.9 C 6.11 g/m*3 17.9 C 0 km/h
53 22-06-2010 10:30:01 18.7 C 6.56 g/m*3 18.7 C 0 km/h
54 22-06-2010 10:42:02 19.5 C 6.55 g/m*3 19.5 C 0 km/h
55 22-06-2010 10:54:02 20.2 C 6.47 g/m*3 20.2 C 0 km/h
56 22-06-2010 11:06:01 20.7 C 5.94 g/m*3 20.7 C 0 km/h
57 22-06-2010 11:18:02 20.1 C 6.08 g/m*3 20.1 C 0 km/h
58 22-06-2010 11:30:02 20.4 C 5.84 g/m*3 20.4 C 0 km/h
59 22-06-2010 11:42:02 20.4 C 5.66 g/m*3 20.4 C 0 km/h
60 22-06-2010 11:54:02 19.6 C 5.57 g/m*3 19.6 C 0 km/h
61 22-06-2010 12:06:03 21.4 C 6 g/m*3 21.4 C 0 km/h
62 22-06-2010 12:18:02 23.3 C 5.23 g/m*3 23.3 C 0 km/h
63 22-06-2010 12:30:02 20.7 C 5.4 g/m*3 20.7 C 0 km/h
64 22-06-2010 12:42:02 19.9 C 5.5 g/m*3 19.9 C 0 km/h
65 22-06-2010 12:54:01 20.1 C 5.21 g/m*3 20.1 C 0 km/h
66 22-06-2010 13:06:02 22.5 C 4.99 g/m*3 22.5 C 0 km/h
67 22-06-2010 13:18:01 20.4 C 5.31 g/m*3 20.4 C 0 km/h
68 22-06-2010 13:30:01 20.7 C 5.4 g/m*3 20.7 C 0 km/h
69 22-06-2010 13:42:01 22.1 C 5.47 g/m*3 22.1 C 0 km/h
70 22-06-2010 13:54:01 22.7 C 5.25 g/m*3 22.7 C 0 km/h
71 22-06-2010 14:06:02 23 C 4.93 g/m*3 23 C 0 km/h
72 22-06-2010 14:18:01 23.1 C 5.37 g/m*3 23.1 C 0 km/h
73 22-06-2010 14:30:01 23.2 C 5.41 g/m*3 23.2 C 0 km/h
74 22-06-2010 14:42:01 23.3 C 5.23 g/m*3 23.3 C 0 km/h
75 22-06-2010 14:54:01 23.9 C 4.98 g/m*3 23.9 C 0 km/h
Sensor: Nr:Datum:Temp:Abs-Feuchte:Windchill:Wind:
Aussen-T/F 76 22-06-2010 15:06:02 23.9 C 4.98 g/m*3 23.9 C 0 km/h
77 22-06-2010 15:18:02 24.7 C 4.75 g/m*3 24.7 C 0 km/h
78 22-06-2010 15:30:02 24.9 C 5.49 g/m*3 24.9 C 0 km/h
79 22-06-2010 15:42:01 25 C 5.06 g/m*3 25 C 0 km/h
80 22-06-2010 15:54:02 24.2 C 4.4 g/m*3 24.2 C 0 km/h
81 22-06-2010 16:06:01 23.3 C 4.81 g/m*3 23.3 C 0 km/h
82 22-06-2010 16:18:02 23.4 C 5.26 g/m*3 23.4 C 0 km/h
83 22-06-2010 16:30:02 24.9 C 5.04 g/m*3 24.9 C 0 km/h
84 22-06-2010 16:42:01 26 C 4.87 g/m*3 26 C 0 km/h
85 22-06-2010 16:54:03 23.8 C 4.73 g/m*3 23.8 C 0 km/h
86 22-06-2010 17:06:02 23.6 C 5.32 g/m*3 23.6 C 0 km/h
87 22-06-2010 17:18:02 22.8 C 5.08 g/m*3 22.8 C 0 km/h
88 22-06-2010 17:30:03 22.7 C 5.25 g/m*3 22.7 C 0 km/h
89 22-06-2010 17:42:02 23.3 C 5.23 g/m*3 23.3 C 0 km/h
90 22-06-2010 17:54:02 24.1 C 5.03 g/m*3 24.1 C 0 km/h
91 22-06-2010 18:06:01 23.7 C 4.92 g/m*3 23.7 C 0 km/h
92 22-06-2010 18:18:02 23.8 C 6.24 g/m*3 23.8 C 0 km/h
93 22-06-2010 18:30:02 23.3 C 6.48 g/m*3 23.3 C 0 km/h
94 22-06-2010 18:42:02 22.6 C 6.63 g/m*3 22.6 C 0 km/h
95 22-06-2010 18:54:01 22.3 C 6.91 g/m*3 22.3 C 0 km/h
96 22-06-2010 19:06:02 22.7 C 6.67 g/m*3 22.7 C 0 km/h
97 22-06-2010 19:18:01 23.3 C 6.27 g/m*3 23.3 C 0 km/h
98 22-06-2010 19:30:01 23.9 C 6.06 g/m*3 23.9 C 0 km/h
99 22-06-2010 19:42:02 24 C 5.87 g/m*3 24 C 0 km/h
100 22-06-2010 19:54:02 23.5 C 6.56 g/m*3 23.5 C 0 km/h
Sensor: Nr:Datum:Temp:Abs-Feuchte:Windchill:Wind:
Aussen-T/F 101 22-06-2010 20:06:02 22.8 C 6.5 g/m*3 22.8 C 0 km/h
102 22-06-2010 20:18:01 22.1 C 6.44 g/m*3 22.1 C 0 km/h
103 22-06-2010 20:30:01 21.1 C 6.63 g/m*3 21.1 C 0 km/h
104 22-06-2010 20:42:02 20 C 6.74 g/m*3 20 C 0 km/h
105 22-06-2010 20:54:02 19.2 C 6.76 g/m*3 19.2 C 0 km/h
106 22-06-2010 21:06:02 18.9 C 6.64 g/m*3 18.9 C 0 km/h
107 22-06-2010 21:18:01 18.3 C 6.41 g/m*3 18.3 C 0 km/h
108 22-06-2010 21:30:01 18 C 6.45 g/m*3 18 C 0 km/h
109 22-06-2010 21:42:02 17.6 C 6.45 g/m*3 17.6 C 0 km/h
110 22-06-2010 21:54:02 17.3 C 6.33 g/m*3 17.3 C 0 km/h
111 22-06-2010 22:06:02 16.8 C 6.72 g/m*3 16.8 C 0 km/h
112 22-06-2010 22:18:02 16.7 C 6.82 g/m*3 16.7 C 0 km/h
113 22-06-2010 22:30:02 16.3 C 6.8 g/m*3 16.3 C 0 km/h
114 22-06-2010 22:42:02 16 C 6.81 g/m*3 16 C 0 km/h
115 22-06-2010 22:55:05 15.8 C 6.87 g/m*3 15.8 C 0 km/h
116 22-06-2010 23:07:05 15.5 C 7.01 g/m*3 15.5 C 0 km/h
117 22-06-2010 23:19:05 15.2 C 6.88 g/m*3 15.2 C 0 km/h
118 22-06-2010 23:31:05 14.9 C 6.88 g/m*3 14.9 C 0 km/h
119 22-06-2010 23:43:05 14.7 C 7.05 g/m*3 14.7 C 0 km/h
120 22-06-2010 23:55:05 14.6 C 7.13 g/m*3 14.6 C 0 km/h

Legende:
   Min
   Max


Maximal/Minimal-Werte vom 14.04.2020 - 16.05.2020

Sensor Min Max Avg
Temp
(Aussen-T/F)
-0.1 °C
15-04-2020  06:55:00
26.2 °C
17-04-2020  18:05:00
11.98 °C

Die Daten stammen von einer Davis Vantage Pro 2 Wetter-Station und werden unter Linux mit der Software wview2wettercgi und aufbereitet. Alle Angaben erfolgen ohne Gewähr für ihre Vollständigkeit oder Richtigkeit.
Kontakt: Rainer Krienke krienke@uni-koblenz.de . Meine Webseiten an der Uni Koblenz oder privat.
Version: $Revision: 0.78 $